sensor_id;sensor_type;location;lat;lon;timestamp;temperature;humidity
14517;DHT22;7344;50.864;4.362;2022-11-03T00:01:51;14.00;99.90
14517;DHT22;7344;50.864;4.362;2022-11-03T00:04:18;14.00;99.90
14517;DHT22;7344;50.864;4.362;2022-11-03T00:06:49;14.00;99.90
14517;DHT22;7344;50.864;4.362;2022-11-03T00:09:16;14.00;99.90
14517;DHT22;7344;50.864;4.362;2022-11-03T00:11:43;14.00;99.90
14517;DHT22;7344;50.864;4.362;2022-11-03T00:14:10;14.00;99.90
14517;DHT22;7344;50.864;4.362;2022-11-03T00:16:36;14.00;99.90
14517;DHT22;7344;50.864;4.362;2022-11-03T00:19:03;14.00;99.90
14517;DHT22;7344;50.864;4.362;2022-11-03T00:21:29;14.00;99.90
14517;DHT22;7344;50.864;4.362;2022-11-03T00:23:54;14.00;99.90
14517;DHT22;7344;50.864;4.362;2022-11-03T00:26:27;14.00;99.90
14517;DHT22;7344;50.864;4.362;2022-11-03T00:28:58;14.00;99.90
14517;DHT22;7344;50.864;4.362;2022-11-03T00:31:32;13.90;99.90
14517;DHT22;7344;50.864;4.362;2022-11-03T00:33:59;13.90;99.90
14517;DHT22;7344;50.864;4.362;2022-11-03T00:36:27;14.00;99.90
14517;DHT22;7344;50.864;4.362;2022-11-03T00:38:53;14.00;99.90
14517;DHT22;7344;50.864;4.362;2022-11-03T00:41:20;13.90;99.90
14517;DHT22;7344;50.864;4.362;2022-11-03T00:43:48;14.00;99.90
14517;DHT22;7344;50.864;4.362;2022-11-03T00:46:16;13.90;99.90
14517;DHT22;7344;50.864;4.362;2022-11-03T00:48:41;14.00;99.90
14517;DHT22;7344;50.864;4.362;2022-11-03T00:53:45;14.00;99.90
14517;DHT22;7344;50.864;4.362;2022-11-03T00:56:13;14.00;99.90
14517;DHT22;7344;50.864;4.362;2022-11-03T00:58:40;14.00;99.90
14517;DHT22;7344;50.864;4.362;2022-11-03T01:01:18;14.00;99.90
14517;DHT22;7344;50.864;4.362;2022-11-03T01:03:46;14.00;99.90
14517;DHT22;7344;50.864;4.362;2022-11-03T01:06:35;14.00;99.90
14517;DHT22;7344;50.864;4.362;2022-11-03T01:14:35;14.00;99.90
14517;DHT22;7344;50.864;4.362;2022-11-03T01:17:06;14.00;99.90
14517;DHT22;7344;50.864;4.362;2022-11-03T01:19:32;14.00;99.90
14517;DHT22;7344;50.864;4.362;2022-11-03T01:21:57;13.90;99.90
14517;DHT22;7344;50.864;4.362;2022-11-03T01:24:23;13.90;99.90
14517;DHT22;7344;50.864;4.362;2022-11-03T01:26:49;13.90;99.90
14517;DHT22;7344;50.864;4.362;2022-11-03T01:29:15;13.90;99.90
14517;DHT22;7344;50.864;4.362;2022-11-03T01:31:41;13.90;99.90
14517;DHT22;7344;50.864;4.362;2022-11-03T01:34:07;13.90;99.90
14517;DHT22;7344;50.864;4.362;2022-11-03T01:36:34;13.80;99.90
14517;DHT22;7344;50.864;4.362;2022-11-03T01:38:59;13.80;99.90
14517;DHT22;7344;50.864;4.362;2022-11-03T01:41:27;13.80;99.90
14517;DHT22;7344;50.864;4.362;2022-11-03T01:49:56;13.80;99.90
14517;DHT22;7344;50.864;4.362;2022-11-03T01:52:32;13.80;99.90
14517;DHT22;7344;50.864;4.362;2022-11-03T01:55:04;13.80;99.90
14517;DHT22;7344;50.864;4.362;2022-11-03T01:57:38;13.90;99.90
14517;DHT22;7344;50.864;4.362;2022-11-03T02:00:06;13.80;99.90
14517;DHT22;7344;50.864;4.362;2022-11-03T02:02:31;13.80;99.90
14517;DHT22;7344;50.864;4.362;2022-11-03T02:04:59;13.80;99.90
14517;DHT22;7344;50.864;4.362;2022-11-03T02:07:36;13.80;99.90
14517;DHT22;7344;50.864;4.362;2022-11-03T02:10:03;13.80;99.90
14517;DHT22;7344;50.864;4.362;2022-11-03T02:12:29;13.90;99.90
14517;DHT22;7344;50.864;4.362;2022-11-03T02:15:06;13.80;99.90
14517;DHT22;7344;50.864;4.362;2022-11-03T02:17:33;13.90;99.90
14517;DHT22;7344;50.864;4.362;2022-11-03T02:20:06;13.90;99.90
14517;DHT22;7344;50.864;4.362;2022-11-03T02:23:03;13.80;99.90
14517;DHT22;7344;50.864;4.362;2022-11-03T02:25:41;13.90;99.90
14517;DHT22;7344;50.864;4.362;2022-11-03T02:28:07;13.90;99.90
14517;DHT22;7344;50.864;4.362;2022-11-03T02:36:23;13.90;99.90
14517;DHT22;7344;50.864;4.362;2022-11-03T02:39:04;13.90;99.90
14517;DHT22;7344;50.864;4.362;2022-11-03T02:41:34;14.00;99.90
14517;DHT22;7344;50.864;4.362;2022-11-03T02:44:02;14.00;99.90
14517;DHT22;7344;50.864;4.362;2022-11-03T02:46:29;13.90;99.90
14517;DHT22;7344;50.864;4.362;2022-11-03T02:48:56;13.90;99.90
14517;DHT22;7344;50.864;4.362;2022-11-03T02:51:23;13.90;99.90
14517;DHT22;7344;50.864;4.362;2022-11-03T02:56:44;13.90;99.90
14517;DHT22;7344;50.864;4.362;2022-11-03T02:59:15;13.90;99.90
14517;DHT22;7344;50.864;4.362;2022-11-03T03:01:48;14.00;99.90
14517;DHT22;7344;50.864;4.362;2022-11-03T03:06:59;14.00;99.90
14517;DHT22;7344;50.864;4.362;2022-11-03T03:09:55;14.00;99.90
14517;DHT22;7344;50.864;4.362;2022-11-03T03:12:23;14.00;99.90
14517;DHT22;7344;50.864;4.362;2022-11-03T03:14:50;14.00;99.90
14517;DHT22;7344;50.864;4.362;2022-11-03T03:17:17;14.00;99.90
14517;DHT22;7344;50.864;4.362;2022-11-03T03:22:52;14.00;99.90
14517;DHT22;7344;50.864;4.362;2022-11-03T03:25:29;14.00;99.90
14517;DHT22;7344;50.864;4.362;2022-11-03T03:28:03;14.00;99.90
14517;DHT22;7344;50.864;4.362;2022-11-03T03:30:32;14.00;99.90
14517;DHT22;7344;50.864;4.362;2022-11-03T03:33:00;14.00;99.90
14517;DHT22;7344;50.864;4.362;2022-11-03T03:35:29;14.00;99.90
14517;DHT22;7344;50.864;4.362;2022-11-03T03:38:01;14.00;99.90
14517;DHT22;7344;50.864;4.362;2022-11-03T03:40:34;14.00;99.90
14517;DHT22;7344;50.864;4.362;2022-11-03T03:43:02;14.00;99.90
14517;DHT22;7344;50.864;4.362;2022-11-03T03:45:29;14.00;99.90
14517;DHT22;7344;50.864;4.362;2022-11-03T03:47:56;14.00;99.90
14517;DHT22;7344;50.864;4.362;2022-11-03T03:50:23;14.00;99.90
14517;DHT22;7344;50.864;4.362;2022-11-03T03:52:54;14.00;99.90
14517;DHT22;7344;50.864;4.362;2022-11-03T03:55:24;14.10;99.90
14517;DHT22;7344;50.864;4.362;2022-11-03T03:57:50;14.10;99.90
14517;DHT22;7344;50.864;4.362;2022-11-03T04:00:16;14.10;99.90
14517;DHT22;7344;50.864;4.362;2022-11-03T04:02:42;14.10;99.90
14517;DHT22;7344;50.864;4.362;2022-11-03T04:05:07;14.10;99.90
14517;DHT22;7344;50.864;4.362;2022-11-03T04:07:33;14.10;99.90
14517;DHT22;7344;50.864;4.362;2022-11-03T04:10:11;14.10;99.90
14517;DHT22;7344;50.864;4.362;2022-11-03T04:12:40;14.00;99.90
14517;DHT22;7344;50.864;4.362;2022-11-03T04:15:24;14.00;99.90
14517;DHT22;7344;50.864;4.362;2022-11-03T04:18:07;14.00;99.90
14517;DHT22;7344;50.864;4.362;2022-11-03T04:20:52;13.90;99.90
14517;DHT22;7344;50.864;4.362;2022-11-03T04:23:36;13.90;99.90
14517;DHT22;7344;50.864;4.362;2022-11-03T04:26:03;13.90;99.90
14517;DHT22;7344;50.864;4.362;2022-11-03T04:28:31;14.00;99.90
14517;DHT22;7344;50.864;4.362;2022-11-03T04:30:58;13.90;99.90
14517;DHT22;7344;50.864;4.362;2022-11-03T04:33:23;14.00;99.90
14517;DHT22;7344;50.864;4.362;2022-11-03T04:35:49;14.00;99.90
14517;DHT22;7344;50.864;4.362;2022-11-03T04:38:22;14.00;99.90
14517;DHT22;7344;50.864;4.362;2022-11-03T04:40:55;14.00;99.90
14517;DHT22;7344;50.864;4.362;2022-11-03T04:43:31;14.00;99.90
14517;DHT22;7344;50.864;4.362;2022-11-03T04:45:57;14.10;99.90
14517;DHT22;7344;50.864;4.362;2022-11-03T04:48:24;14.10;99.90
14517;DHT22;7344;50.864;4.362;2022-11-03T04:50:54;14.10;99.90
14517;DHT22;7344;50.864;4.362;2022-11-03T04:53:22;14.10;99.90
14517;DHT22;7344;50.864;4.362;2022-11-03T04:55:50;14.20;99.90
14517;DHT22;7344;50.864;4.362;2022-11-03T04:58:21;14.20;99.90
14517;DHT22;7344;50.864;4.362;2022-11-03T05:00:53;14.20;99.90
14517;DHT22;7344;50.864;4.362;2022-11-03T05:03:22;14.20;99.90
14517;DHT22;7344;50.864;4.362;2022-11-03T05:05:48;14.10;99.90
14517;DHT22;7344;50.864;4.362;2022-11-03T05:08:16;14.10;99.90
14517;DHT22;7344;50.864;4.362;2022-11-03T05:10:43;14.10;99.90
14517;DHT22;7344;50.864;4.362;2022-11-03T05:13:23;14.10;99.90
14517;DHT22;7344;50.864;4.362;2022-11-03T05:15:51;14.20;99.90
14517;DHT22;7344;50.864;4.362;2022-11-03T05:18:47;14.10;99.90
14517;DHT22;7344;50.864;4.362;2022-11-03T05:21:18;14.00;99.90
14517;DHT22;7344;50.864;4.362;2022-11-03T05:23:47;14.10;99.90
14517;DHT22;7344;50.864;4.362;2022-11-03T05:26:23;14.00;99.90
14517;DHT22;7344;50.864;4.362;2022-11-03T05:28:55;14.00;99.90
14517;DHT22;7344;50.864;4.362;2022-11-03T05:31:29;13.90;99.90
14517;DHT22;7344;50.864;4.362;2022-11-03T05:33:57;13.90;99.90
14517;DHT22;7344;50.864;4.362;2022-11-03T05:36:26;13.80;99.90
14517;DHT22;7344;50.864;4.362;2022-11-03T05:39:40;13.80;99.90
14517;DHT22;7344;50.864;4.362;2022-11-03T05:41:40;13.80;99.90
14517;DHT22;7344;50.864;4.362;2022-11-03T05:44:33;13.80;99.90
14517;DHT22;7344;50.864;4.362;2022-11-03T05:47:02;13.70;99.90
14517;DHT22;7344;50.864;4.362;2022-11-03T05:49:29;13.70;99.90
14517;DHT22;7344;50.864;4.362;2022-11-03T05:51:55;13.70;99.90
14517;DHT22;7344;50.864;4.362;2022-11-03T05:54:32;13.70;99.90
14517;DHT22;7344;50.864;4.362;2022-11-03T05:57:00;13.70;99.90
14517;DHT22;7344;50.864;4.362;2022-11-03T05:59:27;13.70;99.90
14517;DHT22;7344;50.864;4.362;2022-11-03T06:01:58;13.70;99.90
14517;DHT22;7344;50.864;4.362;2022-11-03T06:04:28;13.70;99.90
14517;DHT22;7344;50.864;4.362;2022-11-03T06:07:12;13.60;99.90
14517;DHT22;7344;50.864;4.362;2022-11-03T06:09:40;13.60;99.90
14517;DHT22;7344;50.864;4.362;2022-11-03T06:12:11;13.60;99.90
14517;DHT22;7344;50.864;4.362;2022-11-03T06:14:38;13.60;99.90
14517;DHT22;7344;50.864;4.362;2022-11-03T06:17:06;13.60;99.90
14517;DHT22;7344;50.864;4.362;2022-11-03T06:19:40;13.60;99.90
14517;DHT22;7344;50.864;4.362;2022-11-03T06:22:25;13.60;99.90
14517;DHT22;7344;50.864;4.362;2022-11-03T06:24:56;13.60;99.90
14517;DHT22;7344;50.864;4.362;2022-11-03T06:27:25;13.50;99.90
14517;DHT22;7344;50.864;4.362;2022-11-03T06:29:58;13.60;99.90
14517;DHT22;7344;50.864;4.362;2022-11-03T06:32:26;13.60;99.90
14517;DHT22;7344;50.864;4.362;2022-11-03T06:34:56;13.60;99.90
14517;DHT22;7344;50.864;4.362;2022-11-03T06:37:25;13.60;99.90
14517;DHT22;7344;50.864;4.362;2022-11-03T06:40:44;13.70;99.90
14517;DHT22;7344;50.864;4.362;2022-11-03T06:42:45;13.70;99.90
14517;DHT22;7344;50.864;4.362;2022-11-03T06:45:21;13.60;99.90
14517;DHT22;7344;50.864;4.362;2022-11-03T06:47:47;13.70;99.90
14517;DHT22;7344;50.864;4.362;2022-11-03T06:50:23;13.70;99.90
14517;DHT22;7344;50.864;4.362;2022-11-03T06:52:50;13.70;99.90
14517;DHT22;7344;50.864;4.362;2022-11-03T06:57:57;13.80;99.90
14517;DHT22;7344;50.864;4.362;2022-11-03T07:00:25;13.80;99.90
14517;DHT22;7344;50.864;4.362;2022-11-03T07:05:26;13.90;99.90
14517;DHT22;7344;50.864;4.362;2022-11-03T07:07:54;13.90;99.90
14517;DHT22;7344;50.864;4.362;2022-11-03T07:10:24;13.80;99.90
14517;DHT22;7344;50.864;4.362;2022-11-03T07:12:51;13.80;99.90
14517;DHT22;7344;50.864;4.362;2022-11-03T07:15:30;13.80;99.90
14517;DHT22;7344;50.864;4.362;2022-11-03T07:18:00;13.80;99.90
14517;DHT22;7344;50.864;4.362;2022-11-03T07:20:27;13.80;99.90
14517;DHT22;7344;50.864;4.362;2022-11-03T07:22:53;13.80;99.90
14517;DHT22;7344;50.864;4.362;2022-11-03T07:25:21;13.80;99.90
14517;DHT22;7344;50.864;4.362;2022-11-03T07:27:51;13.80;99.90
14517;DHT22;7344;50.864;4.362;2022-11-03T07:30:21;13.80;99.90
14517;DHT22;7344;50.864;4.362;2022-11-03T07:32:48;13.80;99.90
14517;DHT22;7344;50.864;4.362;2022-11-03T07:35:31;13.60;99.90
14517;DHT22;7344;50.864;4.362;2022-11-03T07:38:01;13.80;99.90
14517;DHT22;7344;50.864;4.362;2022-11-03T07:40:31;13.80;99.90
14517;DHT22;7344;50.864;4.362;2022-11-03T07:42:59;13.80;99.90
14517;DHT22;7344;50.864;4.362;2022-11-03T07:45:42;13.90;99.90
14517;DHT22;7344;50.864;4.362;2022-11-03T07:48:28;13.80;99.90
14517;DHT22;7344;50.864;4.362;2022-11-03T07:51:21;13.90;99.90
14517;DHT22;7344;50.864;4.362;2022-11-03T07:53:48;13.80;99.90
14517;DHT22;7344;50.864;4.362;2022-11-03T07:58:48;13.70;99.90
14517;DHT22;7344;50.864;4.362;2022-11-03T08:01:51;13.70;99.90
14517;DHT22;7344;50.864;4.362;2022-11-03T08:04:20;13.70;99.90
14517;DHT22;7344;50.864;4.362;2022-11-03T08:06:47;13.70;99.90
14517;DHT22;7344;50.864;4.362;2022-11-03T08:09:14;13.70;99.90
14517;DHT22;7344;50.864;4.362;2022-11-03T08:11:39;13.70;99.90
14517;DHT22;7344;50.864;4.362;2022-11-03T08:14:05;13.80;99.90
14517;DHT22;7344;50.864;4.362;2022-11-03T08:16:30;13.80;99.90
14517;DHT22;7344;50.864;4.362;2022-11-03T08:18:56;13.70;99.90
14517;DHT22;7344;50.864;4.362;2022-11-03T08:21:22;13.70;99.90
14517;DHT22;7344;50.864;4.362;2022-11-03T08:23:47;13.70;99.90
14517;DHT22;7344;50.864;4.362;2022-11-03T08:26:13;13.80;99.90
14517;DHT22;7344;50.864;4.362;2022-11-03T08:28:39;13.80;99.90
14517;DHT22;7344;50.864;4.362;2022-11-03T08:31:05;13.70;99.90
14517;DHT22;7344;50.864;4.362;2022-11-03T08:33:31;13.70;99.90
14517;DHT22;7344;50.864;4.362;2022-11-03T08:35:58;13.60;99.90
14517;DHT22;7344;50.864;4.362;2022-11-03T08:38:24;13.70;99.90
14517;DHT22;7344;50.864;4.362;2022-11-03T08:40:49;13.70;99.90
14517;DHT22;7344;50.864;4.362;2022-11-03T08:43:15;13.60;99.90
14517;DHT22;7344;50.864;4.362;2022-11-03T08:45:40;13.60;99.90
14517;DHT22;7344;50.864;4.362;2022-11-03T08:48:06;13.60;99.90
14517;DHT22;7344;50.864;4.362;2022-11-03T08:50:31;13.60;99.90
14517;DHT22;7344;50.864;4.362;2022-11-03T08:52:57;13.70;99.90
14517;DHT22;7344;50.864;4.362;2022-11-03T08:55:23;13.60;99.90
14517;DHT22;7344;50.864;4.362;2022-11-03T08:57:48;13.60;99.90
14517;DHT22;7344;50.864;4.362;2022-11-03T09:00:14;13.70;99.90
14517;DHT22;7344;50.864;4.362;2022-11-03T09:02:44;13.70;99.90
14517;DHT22;7344;50.864;4.362;2022-11-03T09:05:11;13.70;99.90
14517;DHT22;7344;50.864;4.362;2022-11-03T09:07:40;13.70;99.90
14517;DHT22;7344;50.864;4.362;2022-11-03T09:10:07;13.80;99.90
14517;DHT22;7344;50.864;4.362;2022-11-03T09:12:34;13.80;1.00
14517;DHT22;7344;50.864;4.362;2022-11-03T09:14:59;13.70;1.00
14517;DHT22;7344;50.864;4.362;2022-11-03T09:17:25;13.80;1.00
14517;DHT22;7344;50.864;4.362;2022-11-03T09:19:50;13.80;1.00
14517;DHT22;7344;50.864;4.362;2022-11-03T09:22:16;13.80;1.00
14517;DHT22;7344;50.864;4.362;2022-11-03T09:24:41;13.90;1.00
14517;DHT22;7344;50.864;4.362;2022-11-03T09:27:07;14.10;1.00
14517;DHT22;7344;50.864;4.362;2022-11-03T09:29:33;14.20;1.00
14517;DHT22;7344;50.864;4.362;2022-11-03T09:31:58;14.40;1.00
14517;DHT22;7344;50.864;4.362;2022-11-03T09:34:24;14.60;1.00
14517;DHT22;7344;50.864;4.362;2022-11-03T09:36:49;14.80;1.00
14517;DHT22;7344;50.864;4.362;2022-11-03T09:39:15;15.40;1.00
14517;DHT22;7344;50.864;4.362;2022-11-03T09:41:41;16.10;99.90
14517;DHT22;7344;50.864;4.362;2022-11-03T09:44:06;16.70;99.90
14517;DHT22;7344;50.864;4.362;2022-11-03T09:46:32;17.00;1.00
14517;DHT22;7344;50.864;4.362;2022-11-03T09:49:00;17.40;99.90
14517;DHT22;7344;50.864;4.362;2022-11-03T09:51:26;17.40;1.00
14517;DHT22;7344;50.864;4.362;2022-11-03T09:53:54;17.00;99.90
14517;DHT22;7344;50.864;4.362;2022-11-03T09:56:21;17.00;99.90
14517;DHT22;7344;50.864;4.362;2022-11-03T09:58:48;16.70;99.90
14517;DHT22;7344;50.864;4.362;2022-11-03T10:01:14;16.50;1.00
14517;DHT22;7344;50.864;4.362;2022-11-03T10:03:40;16.60;48.90
14517;DHT22;7344;50.864;4.362;2022-11-03T10:06:05;16.70;99.90
14517;DHT22;7344;50.864;4.362;2022-11-03T10:08:34;16.70;1.00
14517;DHT22;7344;50.864;4.362;2022-11-03T10:11:01;16.60;99.90
14517;DHT22;7344;50.864;4.362;2022-11-03T10:13:37;16.40;98.70
14517;DHT22;7344;50.864;4.362;2022-11-03T10:16:08;16.30;99.90
14517;DHT22;7344;50.864;4.362;2022-11-03T10:18:35;16.10;99.90
14517;DHT22;7344;50.864;4.362;2022-11-03T10:21:05;16.00;1.00
14517;DHT22;7344;50.864;4.362;2022-11-03T10:23:32;16.00;1.00
14517;DHT22;7344;50.864;4.362;2022-11-03T10:26:08;15.80;1.00
14517;DHT22;7344;50.864;4.362;2022-11-03T10:28:34;15.70;60.70
14517;DHT22;7344;50.864;4.362;2022-11-03T10:31:02;15.50;99.90
14517;DHT22;7344;50.864;4.362;2022-11-03T10:36:03;15.50;99.90
14517;DHT22;7344;50.864;4.362;2022-11-03T10:38:33;15.70;99.90
14517;DHT22;7344;50.864;4.362;2022-11-03T10:41:15;15.90;1.00
14517;DHT22;7344;50.864;4.362;2022-11-03T10:44:04;15.80;1.00
14517;DHT22;7344;50.864;4.362;2022-11-03T10:46:29;15.90;1.00
14517;DHT22;7344;50.864;4.362;2022-11-03T10:49:18;15.80;1.00
14517;DHT22;7344;50.864;4.362;2022-11-03T10:51:48;15.90;99.90
14517;DHT22;7344;50.864;4.362;2022-11-03T10:54:16;15.80;1.00
14517;DHT22;7344;50.864;4.362;2022-11-03T10:56:43;15.80;1.00
14517;DHT22;7344;50.864;4.362;2022-11-03T10:59:16;15.90;99.90
14517;DHT22;7344;50.864;4.362;2022-11-03T11:01:42;16.00;99.90
14517;DHT22;7344;50.864;4.362;2022-11-03T11:04:17;16.00;96.90
14517;DHT22;7344;50.864;4.362;2022-11-03T11:06:43;16.00;1.00
14517;DHT22;7344;50.864;4.362;2022-11-03T11:09:13;16.00;1.00
14517;DHT22;7344;50.864;4.362;2022-11-03T11:11:38;16.00;1.00
14517;DHT22;7344;50.864;4.362;2022-11-03T11:14:34;16.20;1.00
14517;DHT22;7344;50.864;4.362;2022-11-03T11:17:01;16.40;1.00
14517;DHT22;7344;50.864;4.362;2022-11-03T11:19:28;16.50;42.90
14517;DHT22;7344;50.864;4.362;2022-11-03T11:29:59;16.50;99.90
14517;DHT22;7344;50.864;4.362;2022-11-03T11:35:16;16.80;1.00
14517;DHT22;7344;50.864;4.362;2022-11-03T11:37:42;16.80;99.90
14517;DHT22;7344;50.864;4.362;2022-11-03T11:48:28;18.00;1.00
14517;DHT22;7344;50.864;4.362;2022-11-03T11:50:56;18.00;99.90
14517;DHT22;7344;50.864;4.362;2022-11-03T11:53:23;17.80;99.90
14517;DHT22;7344;50.864;4.362;2022-11-03T11:56:00;17.40;1.00
14517;DHT22;7344;50.864;4.362;2022-11-03T11:58:33;17.20;1.00
14517;DHT22;7344;50.864;4.362;2022-11-03T12:01:04;17.00;1.00
14517;DHT22;7344;50.864;4.362;2022-11-03T12:03:40;17.00;1.00
14517;DHT22;7344;50.864;4.362;2022-11-03T12:06:07;16.80;99.90
14517;DHT22;7344;50.864;4.362;2022-11-03T12:08:36;16.70;1.00
14517;DHT22;7344;50.864;4.362;2022-11-03T12:11:04;16.70;1.00
14517;DHT22;7344;50.864;4.362;2022-11-03T12:16:25;16.60;99.90
14517;DHT22;7344;50.864;4.362;2022-11-03T12:18:52;16.60;99.90
14517;DHT22;7344;50.864;4.362;2022-11-03T12:21:44;16.60;1.00
14517;DHT22;7344;50.864;4.362;2022-11-03T12:27:01;16.50;1.00
14517;DHT22;7344;50.864;4.362;2022-11-03T12:29:27;16.50;1.00
14517;DHT22;7344;50.864;4.362;2022-11-03T12:31:53;16.40;99.90
14517;DHT22;7344;50.864;4.362;2022-11-03T12:34:18;16.40;1.00
14517;DHT22;7344;50.864;4.362;2022-11-03T12:36:44;16.10;1.00
14517;DHT22;7344;50.864;4.362;2022-11-03T12:39:10;15.90;1.00
14517;DHT22;7344;50.864;4.362;2022-11-03T12:41:36;15.80;1.00
14517;DHT22;7344;50.864;4.362;2022-11-03T12:44:02;15.70;1.00
14517;DHT22;7344;50.864;4.362;2022-11-03T12:46:28;15.60;1.00
14517;DHT22;7344;50.864;4.362;2022-11-03T12:48:53;15.50;1.00
14517;DHT22;7344;50.864;4.362;2022-11-03T12:51:22;15.50;1.00
14517;DHT22;7344;50.864;4.362;2022-11-03T12:53:48;15.20;1.00
14517;DHT22;7344;50.864;4.362;2022-11-03T12:56:15;15.00;1.00
14517;DHT22;7344;50.864;4.362;2022-11-03T12:58:41;14.90;1.00
14517;DHT22;7344;50.864;4.362;2022-11-03T13:01:07;14.80;1.00
14517;DHT22;7344;50.864;4.362;2022-11-03T13:03:33;14.70;3.20
14517;DHT22;7344;50.864;4.362;2022-11-03T13:06:00;14.60;4.40
14517;DHT22;7344;50.864;4.362;2022-11-03T13:08:26;14.70;12.10
14517;DHT22;7344;50.864;4.362;2022-11-03T13:10:52;14.60;16.50
14517;DHT22;7344;50.864;4.362;2022-11-03T13:13:18;14.50;18.70
14517;DHT22;7344;50.864;4.362;2022-11-03T13:15:44;14.60;28.20
14517;DHT22;7344;50.864;4.362;2022-11-03T13:18:09;14.50;24.30
14517;DHT22;7344;50.864;4.362;2022-11-03T13:20:35;14.40;18.10
14517;DHT22;7344;50.864;4.362;2022-11-03T13:23:02;14.50;10.50
14517;DHT22;7344;50.864;4.362;2022-11-03T13:25:28;14.50;15.60
14517;DHT22;7344;50.864;4.362;2022-11-03T13:27:54;14.50;9.70
14517;DHT22;7344;50.864;4.362;2022-11-03T13:30:21;14.50;11.50
14517;DHT22;7344;50.864;4.362;2022-11-03T13:32:47;14.50;6.50
14517;DHT22;7344;50.864;4.362;2022-11-03T13:35:13;14.50;16.40
14517;DHT22;7344;50.864;4.362;2022-11-03T13:37:38;14.40;18.00
14517;DHT22;7344;50.864;4.362;2022-11-03T13:40:05;14.40;20.10
14517;DHT22;7344;50.864;4.362;2022-11-03T13:42:30;14.40;19.40
14517;DHT22;7344;50.864;4.362;2022-11-03T13:44:56;14.40;21.10
14517;DHT22;7344;50.864;4.362;2022-11-03T13:47:22;14.50;15.30
14517;DHT22;7344;50.864;4.362;2022-11-03T13:49:48;14.40;16.30
14517;DHT22;7344;50.864;4.362;2022-11-03T13:52:17;14.50;13.70
14517;DHT22;7344;50.864;4.362;2022-11-03T13:54:43;14.50;17.90
14517;DHT22;7344;50.864;4.362;2022-11-03T13:57:09;14.60;16.00
14517;DHT22;7344;50.864;4.362;2022-11-03T13:59:34;14.60;8.40
14517;DHT22;7344;50.864;4.362;2022-11-03T14:02:00;14.50;7.40
14517;DHT22;7344;50.864;4.362;2022-11-03T14:04:26;14.40;14.80
14517;DHT22;7344;50.864;4.362;2022-11-03T14:06:52;14.30;20.70
14517;DHT22;7344;50.864;4.362;2022-11-03T14:09:17;14.40;16.50
14517;DHT22;7344;50.864;4.362;2022-11-03T14:11:43;14.40;19.00
14517;DHT22;7344;50.864;4.362;2022-11-03T14:14:27;14.40;10.90
14517;DHT22;7344;50.864;4.362;2022-11-03T14:16:52;14.30;14.00
14517;DHT22;7344;50.864;4.362;2022-11-03T14:19:18;14.30;19.00
14517;DHT22;7344;50.864;4.362;2022-11-03T14:21:44;14.40;13.40
14517;DHT22;7344;50.864;4.362;2022-11-03T14:24:09;14.40;8.90
14517;DHT22;7344;50.864;4.362;2022-11-03T14:26:35;14.50;1.00
14517;DHT22;7344;50.864;4.362;2022-11-03T14:29:01;14.40;1.00
14517;DHT22;7344;50.864;4.362;2022-11-03T14:31:27;14.40;1.00
14517;DHT22;7344;50.864;4.362;2022-11-03T14:33:52;14.40;1.00
14517;DHT22;7344;50.864;4.362;2022-11-03T14:36:18;14.30;1.00
14517;DHT22;7344;50.864;4.362;2022-11-03T14:38:43;14.30;1.60
14517;DHT22;7344;50.864;4.362;2022-11-03T14:41:09;14.40;1.00
14517;DHT22;7344;50.864;4.362;2022-11-03T14:43:53;14.40;1.00
14517;DHT22;7344;50.864;4.362;2022-11-03T14:46:18;14.40;1.00
14517;DHT22;7344;50.864;4.362;2022-11-03T14:48:44;14.40;1.00
14517;DHT22;7344;50.864;4.362;2022-11-03T14:51:10;14.40;1.00
14517;DHT22;7344;50.864;4.362;2022-11-03T14:53:36;14.40;1.00
14517;DHT22;7344;50.864;4.362;2022-11-03T14:56:01;14.30;1.00
14517;DHT22;7344;50.864;4.362;2022-11-03T14:58:27;14.30;1.00
14517;DHT22;7344;50.864;4.362;2022-11-03T15:00:53;14.30;1.00
14517;DHT22;7344;50.864;4.362;2022-11-03T15:03:18;14.30;1.00
14517;DHT22;7344;50.864;4.362;2022-11-03T15:05:44;14.20;3.80
14517;DHT22;7344;50.864;4.362;2022-11-03T15:08:16;14.10;10.20
14517;DHT22;7344;50.864;4.362;2022-11-03T15:10:43;14.10;15.10
14517;DHT22;7344;50.864;4.362;2022-11-03T15:13:08;14.20;22.30
14517;DHT22;7344;50.864;4.362;2022-11-03T15:15:35;14.00;33.90
14517;DHT22;7344;50.864;4.362;2022-11-03T15:18:02;14.10;45.70
14517;DHT22;7344;50.864;4.362;2022-11-03T15:20:28;14.00;51.30
14517;DHT22;7344;50.864;4.362;2022-11-03T15:22:53;13.80;59.90
14517;DHT22;7344;50.864;4.362;2022-11-03T15:25:19;13.80;80.40
14517;DHT22;7344;50.864;4.362;2022-11-03T15:27:44;13.60;90.00
14517;DHT22;7344;50.864;4.362;2022-11-03T15:30:10;13.60;94.90
14517;DHT22;7344;50.864;4.362;2022-11-03T15:32:36;13.50;97.00
14517;DHT22;7344;50.864;4.362;2022-11-03T15:35:03;13.50;99.90
14517;DHT22;7344;50.864;4.362;2022-11-03T15:37:28;13.50;99.90
14517;DHT22;7344;50.864;4.362;2022-11-03T15:39:54;13.40;99.90
14517;DHT22;7344;50.864;4.362;2022-11-03T15:42:19;13.40;99.90
14517;DHT22;7344;50.864;4.362;2022-11-03T15:44:45;13.30;99.90
14517;DHT22;7344;50.864;4.362;2022-11-03T15:47:10;13.30;99.90
14517;DHT22;7344;50.864;4.362;2022-11-03T15:49:36;13.30;99.90
14517;DHT22;7344;50.864;4.362;2022-11-03T15:52:01;13.30;99.90
14517;DHT22;7344;50.864;4.362;2022-11-03T15:54:27;13.30;99.90
14517;DHT22;7344;50.864;4.362;2022-11-03T15:56:52;13.20;99.90
14517;DHT22;7344;50.864;4.362;2022-11-03T15:59:18;13.20;99.90
14517;DHT22;7344;50.864;4.362;2022-11-03T16:01:44;13.20;99.90
14517;DHT22;7344;50.864;4.362;2022-11-03T16:04:10;13.10;99.90
14517;DHT22;7344;50.864;4.362;2022-11-03T16:06:36;13.00;99.90
14517;DHT22;7344;50.864;4.362;2022-11-03T16:09:01;13.00;99.90
14517;DHT22;7344;50.864;4.362;2022-11-03T16:11:28;13.00;99.90
14517;DHT22;7344;50.864;4.362;2022-11-03T16:13:53;12.90;99.90
14517;DHT22;7344;50.864;4.362;2022-11-03T16:16:19;12.90;99.90
14517;DHT22;7344;50.864;4.362;2022-11-03T16:18:45;12.90;99.90
14517;DHT22;7344;50.864;4.362;2022-11-03T16:21:12;12.80;99.90
14517;DHT22;7344;50.864;4.362;2022-11-03T16:23:37;12.70;99.90
14517;DHT22;7344;50.864;4.362;2022-11-03T16:26:03;12.70;99.90
14517;DHT22;7344;50.864;4.362;2022-11-03T16:28:30;12.70;99.90
14517;DHT22;7344;50.864;4.362;2022-11-03T16:30:55;12.70;99.90
14517;DHT22;7344;50.864;4.362;2022-11-03T16:33:21;12.70;99.90
14517;DHT22;7344;50.864;4.362;2022-11-03T16:35:47;12.70;99.90
14517;DHT22;7344;50.864;4.362;2022-11-03T16:38:13;12.70;99.90
14517;DHT22;7344;50.864;4.362;2022-11-03T16:40:40;12.70;99.90
14517;DHT22;7344;50.864;4.362;2022-11-03T16:43:07;12.70;99.90
14517;DHT22;7344;50.864;4.362;2022-11-03T16:45:32;12.70;99.90
14517;DHT22;7344;50.864;4.362;2022-11-03T16:47:58;12.70;99.90
14517;DHT22;7344;50.864;4.362;2022-11-03T16:50:23;12.70;99.90
14517;DHT22;7344;50.864;4.362;2022-11-03T16:52:49;12.80;99.90
14517;DHT22;7344;50.864;4.362;2022-11-03T16:55:16;12.90;99.90
14517;DHT22;7344;50.864;4.362;2022-11-03T16:57:43;12.90;99.90
14517;DHT22;7344;50.864;4.362;2022-11-03T17:00:15;13.00;99.90
14517;DHT22;7344;50.864;4.362;2022-11-03T17:02:41;13.00;99.90
14517;DHT22;7344;50.864;4.362;2022-11-03T17:05:08;13.00;99.90